Time;durP1;ratioP1;P1;durP2;ratioP2;P2;SDS_P1;SDS_P2;PMS_P1;PMS_P2;Temp;Humidity;BMP_temperature;BMP_pressure;BME280_temperature;BME280_humidity;BME280_pressure;Samples;Min_cycle;Max_cycle;Signal;HPM_P1;HPM_P2
2024/01/25 00:02:18;;;;;;;11.63;3.00;;;9.80;15.80;;;;;;5012900;28;20467;-68
2024/01/25 00:04:45;;;;;;;9.87;2.30;;;9.80;15.80;;;;;;5008301;28;20463;-68
2024/01/25 00:07:12;;;;;;;13.73;2.90;;;9.80;15.80;;;;;;5008422;28;20495;-68
2024/01/25 00:09:40;;;;;;;13.50;3.07;;;9.80;15.90;;;;;;5004450;28;20464;-68
2024/01/25 00:12:07;;;;;;;19.80;3.37;;;9.80;15.90;;;;;;5010887;28;20483;-68
2024/01/25 00:14:34;;;;;;;10.97;2.17;;;9.80;15.80;;;;;;5010877;28;20783;-68
2024/01/25 00:17:01;;;;;;;8.03;2.33;;;9.80;15.90;;;;;;5009253;28;20501;-68
2024/01/25 00:19:28;;;;;;;8.47;2.00;;;9.90;15.90;;;;;;5004142;28;20472;-68
2024/01/25 00:21:55;;;;;;;11.20;2.40;;;9.90;16.00;;;;;;5009022;28;20467;-68
2024/01/25 00:24:21;;;;;;;13.67;3.00;;;9.90;16.00;;;;;;5012265;28;20471;-68
2024/01/25 00:26:50;;;;;;;9.50;3.67;;;9.90;15.90;;;;;;5010358;28;20488;-68
2024/01/25 00:29:16;;;;;;;16.57;2.13;;;9.90;15.90;;;;;;5008743;28;20470;-68
2024/01/25 00:31:43;;;;;;;12.27;2.20;;;9.90;15.90;;;;;;5006296;28;21014;-68
2024/01/25 00:34:10;;;;;;;13.50;2.60;;;9.90;15.80;;;;;;5008529;28;20467;-68
2024/01/25 00:36:38;;;;;;;10.53;2.77;;;9.90;15.80;;;;;;5004364;28;20483;-68
2024/01/25 00:39:05;;;;;;;13.37;2.50;;;10.00;15.80;;;;;;5004370;28;20483;-68
2024/01/25 00:41:33;;;;;;;10.20;1.87;;;9.90;15.80;;;;;;5008708;28;20464;-68
2024/01/25 00:44:02;;;;;;;10.27;2.07;;;10.00;15.80;;;;;;5009276;28;20467;-68
2024/01/25 00:46:29;;;;;;;13.07;3.57;;;10.00;15.80;;;;;;4993937;28;20467;-68
2024/01/25 00:48:57;;;;;;;13.43;2.80;;;10.00;15.90;;;;;;5007771;28;20518;-68
2024/01/25 00:51:24;;;;;;;12.73;2.30;;;10.00;15.80;;;;;;5007739;28;20471;-68
2024/01/25 00:53:51;;;;;;;7.63;2.20;;;10.00;15.80;;;;;;5009719;28;20526;-68
2024/01/25 00:56:19;;;;;;;18.60;3.30;;;10.00;15.90;;;;;;5008820;28;20464;-68
2024/01/25 00:58:46;;;;;;;8.50;2.20;;;10.00;16.00;;;;;;5006965;28;20468;-68
2024/01/25 01:01:15;;;;;;;15.40;3.47;;;10.00;15.90;;;;;;5007088;28;20479;-68
2024/01/25 01:03:43;;;;;;;13.63;2.73;;;10.00;16.00;;;;;;5007600;28;20460;-68
2024/01/25 01:06:10;;;;;;;13.20;2.93;;;10.00;16.00;;;;;;5008660;28;20472;-69
2024/01/25 01:08:38;;;;;;;17.70;3.07;;;10.00;15.90;;;;;;5007945;28;21052;-68
2024/01/25 01:11:05;;;;;;;10.53;2.87;;;10.00;16.00;;;;;;5008601;28;20463;-68
2024/01/25 01:13:32;;;;;;;12.70;4.57;;;10.00;16.00;;;;;;5007248;28;20480;-68
2024/01/25 01:15:58;;;;;;;10.40;1.90;;;10.00;15.80;;;;;;5006644;28;20468;-68
2024/01/25 01:18:27;;;;;;;12.87;2.90;;;10.00;15.70;;;;;;5000422;28;20491;-68
2024/01/25 01:20:53;;;;;;;14.87;2.70;;;10.10;15.70;;;;;;5004532;28;20465;-68
2024/01/25 01:23:20;;;;;;;13.97;2.90;;;10.00;15.60;;;;;;5003504;28;20456;-68
2024/01/25 01:25:47;;;;;;;14.07;2.27;;;10.10;15.60;;;;;;5008474;28;20464;-68
2024/01/25 01:28:14;;;;;;;7.77;2.13;;;10.10;15.70;;;;;;5004754;28;20566;-68
2024/01/25 01:30:41;;;;;;;12.77;3.00;;;10.10;15.70;;;;;;5007304;28;20468;-68
2024/01/25 01:33:09;;;;;;;8.87;2.33;;;10.10;15.80;;;;;;5007414;28;20579;-68
2024/01/25 01:35:37;;;;;;;13.03;3.13;;;10.10;15.70;;;;;;5005188;28;20459;-69
2024/01/25 01:38:04;;;;;;;9.53;2.80;;;10.10;15.80;;;;;;5006430;28;20499;-68
2024/01/25 01:40:31;;;;;;;11.50;2.90;;;10.10;15.80;;;;;;5006772;28;20456;-68
2024/01/25 01:43:01;;;;;;;6.97;2.33;;;10.10;15.80;;;;;;5008346;28;20527;-69
2024/01/25 01:45:28;;;;;;;8.13;2.37;;;10.10;15.60;;;;;;5004906;28;20493;-68
2024/01/25 01:47:57;;;;;;;13.60;2.20;;;10.10;15.60;;;;;;5001626;28;20492;-68
2024/01/25 01:50:24;;;;;;;14.43;2.90;;;10.10;15.60;;;;;;5005708;28;20462;-69
2024/01/25 01:52:53;;;;;;;7.40;1.67;;;10.10;15.60;;;;;;5009016;28;21094;-68
2024/01/25 01:55:20;;;;;;;7.43;1.80;;;10.10;15.60;;;;;;5009139;28;20464;-68
2024/01/25 01:57:48;;;;;;;8.77;2.33;;;10.10;15.60;;;;;;5023450;28;20480;-68
2024/01/25 02:00:16;;;;;;;9.67;2.30;;;10.10;15.70;;;;;;5022534;28;20467;-68
2024/01/25 02:02:44;;;;;;;11.30;2.60;;;10.10;15.70;;;;;;5008043;28;20502;-69
2024/01/25 02:05:11;;;;;;;9.63;1.63;;;10.10;15.70;;;;;;5010446;28;20539;-68
2024/01/25 02:07:40;;;;;;;11.10;2.43;;;10.20;15.70;;;;;;5009904;28;20479;-68
2024/01/25 02:10:09;;;;;;;11.33;2.27;;;10.10;15.60;;;;;;5007379;28;20476;-68
2024/01/25 02:12:36;;;;;;;6.53;1.50;;;10.10;15.70;;;;;;5007305;28;20483;-68
2024/01/25 02:15:04;;;;;;;15.10;2.70;;;10.20;15.50;;;;;;5007989;28;20468;-68
2024/01/25 02:17:31;;;;;;;17.43;2.47;;;10.20;15.50;;;;;;5006333;28;20479;-68
2024/01/25 02:19:58;;;;;;;14.43;2.47;;;10.20;15.20;;;;;;5002355;28;20470;-68
2024/01/25 02:22:26;;;;;;;14.00;2.50;;;10.20;15.20;;;;;;5000950;28;20452;-68
2024/01/25 02:24:53;;;;;;;9.87;3.17;;;10.20;15.30;;;;;;5007345;28;20468;-68
2024/01/25 02:27:20;;;;;;;9.07;2.27;;;10.20;15.30;;;;;;5007668;28;20991;-68
2024/01/25 02:29:47;;;;;;;10.63;2.63;;;10.10;15.30;;;;;;5007539;28;20471;-68
2024/01/25 02:32:13;;;;;;;7.07;1.73;;;10.10;15.30;;;;;;5005779;28;20468;-68
2024/01/25 02:34:40;;;;;;;11.40;2.13;;;10.30;15.20;;;;;;5007122;28;20983;-68
2024/01/25 02:37:07;;;;;;;10.03;1.70;;;10.10;15.10;;;;;;5005036;28;20498;-68
2024/01/25 02:39:35;;;;;;;6.77;1.77;;;10.20;15.40;;;;;;5007108;28;20452;-68
2024/01/25 02:42:02;;;;;;;8.10;2.23;;;10.10;15.50;;;;;;5004909;28;20463;-68
2024/01/25 02:44:29;;;;;;;10.00;2.00;;;10.10;15.80;;;;;;5006482;28;20463;-68
2024/01/25 02:46:55;;;;;;;6.70;1.73;;;10.00;16.20;;;;;;5005120;28;20853;-68
2024/01/25 02:49:24;;;;;;;8.00;2.20;;;10.00;16.40;;;;;;5008358;28;20483;-69
2024/01/25 02:51:51;;;;;;;7.70;1.57;;;10.00;16.50;;;;;;5008737;28;20534;-68
2024/01/25 02:54:17;;;;;;;10.70;1.80;;;10.10;16.70;;;;;;5007345;28;20476;-68
2024/01/25 02:56:46;;;;;;;6.13;1.47;;;10.00;16.80;;;;;;5005083;28;20483;-68
2024/01/25 02:59:12;;;;;;;11.20;2.60;;;10.00;17.10;;;;;;5005204;28;20464;-68
2024/01/25 03:01:41;;;;;;;10.50;2.20;;;10.00;17.50;;;;;;5004261;28;20467;-68
2024/01/25 03:04:08;;;;;;;9.73;2.17;;;10.00;18.20;;;;;;5001892;28;20463;-68
2024/01/25 03:06:35;;;;;;;7.60;1.93;;;9.90;18.60;;;;;;4998800;28;20488;-68
2024/01/25 03:09:04;;;;;;;10.90;2.00;;;9.90;19.10;;;;;;5004255;28;20467;-68
2024/01/25 03:11:31;;;;;;;13.77;2.90;;;9.90;19.50;;;;;;5006201;28;20456;-68
2024/01/25 03:13:59;;;;;;;17.73;2.97;;;9.90;19.60;;;;;;5001674;28;20490;-68
2024/01/25 03:16:26;;;;;;;11.23;3.30;;;9.90;20.00;;;;;;5003411;28;20467;-68
2024/01/25 03:18:53;;;;;;;13.33;3.83;;;9.80;20.10;;;;;;5005401;28;20464;-68
2024/01/25 03:21:20;;;;;;;8.37;2.40;;;9.80;20.40;;;;;;5002367;28;20467;-68
2024/01/25 03:23:46;;;;;;;9.40;1.77;;;9.80;20.70;;;;;;5005716;28;20466;-68
2024/01/25 03:26:13;;;;;;;6.77;1.97;;;9.80;20.80;;;;;;5006075;28;20803;-68
2024/01/25 03:28:40;;;;;;;9.43;1.80;;;9.70;21.10;;;;;;5005374;28;20460;-68
2024/01/25 03:31:08;;;;;;;11.23;2.30;;;9.70;21.20;;;;;;5003055;28;20472;-68
2024/01/25 03:33:35;;;;;;;12.40;2.13;;;9.70;21.20;;;;;;5004962;28;20495;-68
2024/01/25 03:36:03;;;;;;;10.83;1.83;;;9.70;21.30;;;;;;5003911;28;20471;-68
2024/01/25 03:38:30;;;;;;;7.40;1.73;;;9.60;21.30;;;;;;5006388;28;20483;-69
2024/01/25 03:40:58;;;;;;;7.27;1.50;;;9.60;21.40;;;;;;5001942;28;20467;-69
2024/01/25 03:43:25;;;;;;;8.57;1.90;;;9.60;21.40;;;;;;5007901;28;20452;-69
2024/01/25 03:45:51;;;;;;;15.83;2.50;;;9.60;21.40;;;;;;5005720;28;20850;-69
2024/01/25 03:48:19;;;;;;;9.70;2.40;;;9.60;21.50;;;;;;5010046;28;20853;-69
2024/01/25 03:50:46;;;;;;;5.67;2.10;;;9.60;21.70;;;;;;5013793;28;20467;-69
2024/01/25 03:53:13;;;;;;;13.67;2.33;;;9.60;21.80;;;;;;5008352;28;20491;-69
2024/01/25 03:55:40;;;;;;;7.27;1.93;;;9.60;21.90;;;;;;5007525;28;20471;-69
2024/01/25 03:58:06;;;;;;;8.63;2.03;;;9.60;22.30;;;;;;5015174;28;20479;-68
2024/01/25 04:00:33;;;;;;;8.57;1.30;;;9.60;21.80;;;;;;5032144;22;20454;-72
2024/01/25 04:03:00;;;;;;;8.17;2.33;;;9.60;21.80;;;;;;5025117;28;20455;-72
2024/01/25 04:05:28;;;;;;;6.80;1.27;;;9.50;21.80;;;;;;5029506;28;20944;-72
2024/01/25 04:07:55;;;;;;;8.47;2.30;;;9.50;22.50;;;;;;5029478;28;20482;-71
2024/01/25 04:10:22;;;;;;;9.40;2.10;;;9.50;22.90;;;;;;5031204;28;20455;-71
2024/01/25 04:12:48;;;;;;;6.60;1.30;;;9.40;22.70;;;;;;5029917;28;20581;-71
2024/01/25 04:15:15;;;;;;;6.50;1.80;;;9.40;23.10;;;;;;5028731;28;20744;-71
2024/01/25 04:17:42;;;;;;;6.70;1.50;;;9.40;23.10;;;;;;5027970;28;20501;-72
2024/01/25 04:20:09;;;;;;;6.80;2.00;;;9.40;23.40;;;;;;5028571;28;20463;-71
2024/01/25 04:22:37;;;;;;;13.47;2.00;;;9.30;23.60;;;;;;5023241;28;21451;-71
2024/01/25 04:25:05;;;;;;;7.30;1.63;;;9.30;23.60;;;;;;5026454;28;20455;-71
2024/01/25 04:27:31;;;;;;;6.80;1.70;;;9.30;23.70;;;;;;5028282;28;20513;-70
2024/01/25 04:29:58;;;;;;;11.27;2.57;;;9.30;23.80;;;;;;5025621;28;20465;-72
2024/01/25 04:32:25;;;;;;;5.83;1.73;;;9.30;23.90;;;;;;5027352;28;20699;-72
2024/01/25 04:34:51;;;;;;;10.00;2.40;;;9.30;23.80;;;;;;5027411;28;20479;-71
2024/01/25 04:37:18;;;;;;;6.53;1.70;;;9.30;23.90;;;;;;5024273;28;20482;-71
2024/01/25 04:39:46;;;;;;;7.43;1.43;;;9.30;23.90;;;;;;5023713;28;20534;-71
2024/01/25 04:42:13;;;;;;;10.50;2.50;;;9.30;23.80;;;;;;5028255;28;20936;-71
2024/01/25 04:44:40;;;;;;;6.27;1.43;;;9.30;23.80;;;;;;5026644;28;20908;-71
2024/01/25 04:47:06;;;;;;;10.47;2.00;;;9.30;23.60;;;;;;5026730;28;21002;-71
2024/01/25 04:49:33;;;;;;;10.27;1.80;;;9.30;23.70;;;;;;5027691;28;20456;-71
2024/01/25 04:52:00;;;;;;;14.37;2.40;;;9.30;23.90;;;;;;5025580;28;20467;-71
2024/01/25 04:54:27;;;;;;;20.00;2.20;;;9.30;23.90;;;;;;5030521;28;20479;-71
2024/01/25 04:56:55;;;;;;;9.80;2.07;;;9.20;23.90;;;;;;5025698;28;20895;-72
2024/01/25 04:59:22;;;;;;;6.00;1.60;;;9.20;24.10;;;;;;5022086;28;20462;-72
2024/01/25 05:01:48;;;;;;;8.90;1.93;;;9.20;24.20;;;;;;5027249;28;20478;-72
2024/01/25 05:04:17;;;;;;;7.40;2.20;;;9.30;24.20;;;;;;5025934;28;20462;-72
2024/01/25 05:06:43;;;;;;;12.20;3.87;;;9.30;24.20;;;;;;5026537;28;21045;-71
2024/01/25 05:09:10;;;;;;;7.67;1.97;;;9.30;24.20;;;;;;5025543;28;20493;-73
2024/01/25 05:11:39;;;;;;;9.00;1.73;;;9.20;24.20;;;;;;5026596;28;20474;-72
2024/01/25 05:14:07;;;;;;;5.50;1.93;;;9.20;24.20;;;;;;5026245;28;20489;-72
2024/01/25 05:16:35;;;;;;;5.57;2.00;;;9.20;24.30;;;;;;5023805;28;20835;-74
2024/01/25 05:19:01;;;;;;;8.80;1.97;;;9.20;24.40;;;;;;5022068;28;20494;-73
2024/01/25 05:21:28;;;;;;;7.57;1.90;;;9.20;24.40;;;;;;5026421;28;20835;-73
2024/01/25 05:23:55;;;;;;;7.67;1.77;;;9.20;24.50;;;;;;5030112;28;20466;-73
2024/01/25 05:26:21;;;;;;;7.20;1.80;;;9.20;25.20;;;;;;5027707;28;20463;-73
2024/01/25 05:28:48;;;;;;;8.27;1.80;;;9.20;24.40;;;;;;5030125;28;20480;-72
2024/01/25 05:31:16;;;;;;;7.33;2.53;;;9.20;24.60;;;;;;5030676;28;20482;-73
2024/01/25 05:33:43;;;;;;;8.20;1.90;;;9.20;24.60;;;;;;5025478;28;20982;-73
2024/01/25 05:36:10;;;;;;;6.37;1.73;;;9.20;24.90;;;;;;5027635;28;20471;-73
2024/01/25 05:38:37;;;;;;;6.90;2.47;;;9.20;24.90;;;;;;5027153;28;20565;-73
2024/01/25 05:41:04;;;;;;;10.57;1.97;;;9.20;24.90;;;;;;5028110;28;20458;-73
2024/01/25 05:43:30;;;;;;;11.17;2.97;;;9.20;25.10;;;;;;5025596;28;20464;-73
2024/01/25 05:45:57;;;;;;;7.90;2.20;;;9.20;25.20;;;;;;5026004;28;20474;-73
2024/01/25 05:48:26;;;;;;;8.50;2.10;;;9.20;25.20;;;;;;5025440;28;20482;-73
2024/01/25 05:50:52;;;;;;;7.10;2.07;;;9.20;25.40;;;;;;5024269;28;20480;-74
2024/01/25 05:53:19;;;;;;;7.73;1.57;;;9.20;25.50;;;;;;5027260;28;20466;-74
2024/01/25 05:55:46;;;;;;;10.20;1.93;;;9.20;25.70;;;;;;5023563;28;20467;-73
2024/01/25 05:58:13;;;;;;;7.77;2.00;;;9.20;25.70;;;;;;5028459;28;20487;-73
2024/01/25 06:00:40;;;;;;;13.20;1.63;;;9.20;25.90;;;;;;5029811;28;20835;-73
2024/01/25 06:03:06;;;;;;;8.97;2.70;;;9.20;25.80;;;;;;5022389;28;20455;-73
2024/01/25 06:05:35;;;;;;;9.00;2.13;;;9.10;26.10;;;;;;5026172;28;21098;-73
2024/01/25 06:08:01;;;;;;;6.50;2.10;;;9.20;26.20;;;;;;5026662;28;20541;-73
2024/01/25 06:10:28;;;;;;;6.97;1.63;;;9.10;26.20;;;;;;5029380;28;20455;-74
2024/01/25 06:12:55;;;;;;;7.47;2.63;;;9.10;26.30;;;;;;5029916;28;20459;-74
2024/01/25 06:15:21;;;;;;;8.20;1.90;;;9.10;26.40;;;;;;5026245;28;20486;-74
2024/01/25 06:17:48;;;;;;;9.03;2.33;;;9.10;26.10;;;;;;5025382;28;20490;-74
2024/01/25 06:20:15;;;;;;;8.53;1.73;;;9.10;26.00;;;;;;5025794;28;20471;-74
2024/01/25 06:22:43;;;;;;;9.43;2.30;;;9.10;25.90;;;;;;5028196;28;20463;-74
2024/01/25 06:25:10;;;;;;;11.60;2.60;;;9.10;25.90;;;;;;5027053;28;20545;-73
2024/01/25 06:27:36;;;;;;;9.13;2.20;;;9.10;26.00;;;;;;5021713;28;20565;-73
2024/01/25 06:30:04;;;;;;;9.60;1.80;;;9.10;25.60;;;;;;5025352;28;20463;-73
2024/01/25 06:32:30;;;;;;;8.67;2.10;;;9.10;25.30;;;;;;5020244;28;20552;-73
2024/01/25 06:34:57;;;;;;;7.77;2.33;;;9.00;25.00;;;;;;5025288;28;20505;-72
2024/01/25 06:37:24;;;;;;;9.63;2.20;;;9.00;24.70;;;;;;5025278;28;20490;-72
2024/01/25 06:39:52;;;;;;;7.10;1.90;;;9.00;24.50;;;;;;5027001;28;20451;-72
2024/01/25 06:42:18;;;;;;;9.60;1.83;;;8.90;24.40;;;;;;5028095;28;20499;-72
2024/01/25 06:44:45;;;;;;;7.10;1.60;;;8.90;24.30;;;;;;5023040;28;20485;-72
2024/01/25 06:47:13;;;;;;;10.13;3.03;;;8.90;24.20;;;;;;5023138;28;20482;-73
2024/01/25 06:49:39;;;;;;;7.27;2.23;;;8.90;24.10;;;;;;5023252;28;21056;-73
2024/01/25 06:52:06;;;;;;;11.40;1.70;;;8.90;23.90;;;;;;5026098;28;21258;-72
2024/01/25 06:54:33;;;;;;;8.37;1.90;;;8.90;23.40;;;;;;5027049;28;20486;-72
2024/01/25 06:57:02;;;;;;;10.77;2.50;;;8.80;23.20;;;;;;5026014;28;20517;-72
2024/01/25 06:59:29;;;;;;;9.30;3.23;;;8.80;23.10;;;;;;5029511;28;20969;-72
2024/01/25 07:01:56;;;;;;;12.77;1.60;;;8.80;22.70;;;;;;5024644;28;20478;-72
2024/01/25 07:04:22;;;;;;;9.13;2.07;;;8.80;22.50;;;;;;5028301;28;21708;-72
2024/01/25 07:06:49;;;;;;;9.03;1.80;;;8.70;22.30;;;;;;5025512;28;20479;-72
2024/01/25 07:09:16;;;;;;;8.20;2.07;;;8.70;22.10;;;;;;5025326;28;20978;-72
2024/01/25 07:11:42;;;;;;;8.43;2.17;;;8.70;22.00;;;;;;5025807;28;20448;-73
2024/01/25 07:14:11;;;;;;;12.27;2.13;;;8.70;22.10;;;;;;5027273;28;20497;-74
2024/01/25 07:16:37;;;;;;;8.33;2.67;;;8.60;22.00;;;;;;5022538;28;20483;-73
2024/01/25 07:19:04;;;;;;;11.60;1.87;;;8.60;22.10;;;;;;5030245;28;20839;-74
2024/01/25 07:21:32;;;;;;;10.47;2.20;;;8.50;22.20;;;;;;5028278;28;20458;-74
2024/01/25 07:24:00;;;;;;;8.40;2.47;;;8.50;22.20;;;;;;5028839;28;20861;-73
2024/01/25 07:26:26;;;;;;;12.73;2.80;;;8.50;22.20;;;;;;5026954;28;20529;-72
2024/01/25 07:28:57;;;;;;;6.73;2.10;;;8.50;22.10;;;;;;5025902;28;20467;-72
2024/01/25 07:31:26;;;;;;;8.53;2.13;;;8.50;22.00;;;;;;5025133;28;20485;-72
2024/01/25 07:33:52;;;;;;;16.97;3.43;;;8.60;21.80;;;;;;5030817;28;20509;-72
2024/01/25 07:36:19;;;;;;;9.70;2.43;;;8.60;21.60;;;;;;5030445;28;20467;-73
2024/01/25 07:38:46;;;;;;;8.57;2.27;;;8.70;21.40;;;;;;5031522;28;20465;-72
2024/01/25 07:41:13;;;;;;;13.40;2.17;;;8.80;20.90;;;;;;5031201;28;20462;-72
2024/01/25 07:43:39;;;;;;;13.53;3.67;;;9.00;20.60;;;;;;5031133;28;20832;-72
2024/01/25 07:46:06;;;;;;;12.23;2.10;;;9.20;20.00;;;;;;5028364;28;20459;-72
2024/01/25 07:48:34;;;;;;;10.13;2.20;;;9.60;19.20;;;;;;5029317;28;20220;-73
2024/01/25 07:51:01;;;;;;;6.23;1.87;;;10.00;18.20;;;;;;5029648;28;20459;-72
2024/01/25 07:53:28;;;;;;;7.93;2.07;;;10.40;17.20;;;;;;5029694;28;20865;-72
2024/01/25 07:55:55;;;;;;;9.17;1.90;;;10.80;16.00;;;;;;5028119;28;20482;-74
2024/01/25 07:58:22;;;;;;;12.90;2.13;;;11.20;14.80;;;;;;5031208;28;20474;-73
2024/01/25 08:00:48;;;;;;;8.93;2.10;;;11.90;13.70;;;;;;5034742;28;21038;-73
2024/01/25 08:03:16;;;;;;;8.70;1.83;;;12.40;12.20;;;;;;5030028;28;20485;-73
2024/01/25 08:05:44;;;;;;;6.93;2.30;;;12.80;10.60;;;;;;5032063;28;20455;-73
2024/01/25 08:08:11;;;;;;;9.80;2.70;;;13.20;10.00;;;;;;5027260;28;20479;-74
2024/01/25 08:10:38;;;;;;;10.43;2.70;;;13.50;8.90;;;;;;5029437;28;20469;-73
2024/01/25 08:13:05;;;;;;;15.17;2.30;;;13.70;8.20;;;;;;5033721;28;20462;-74
2024/01/25 08:15:31;;;;;;;8.23;2.40;;;13.90;8.00;;;;;;5025109;28;20487;-73
2024/01/25 08:17:58;;;;;;;8.87;2.03;;;13.70;7.60;;;;;;5026193;28;20494;-73
2024/01/25 08:20:25;;;;;;;6.23;1.63;;;13.70;8.20;;;;;;5028624;28;20466;-72
2024/01/25 08:22:53;;;;;;;7.67;2.07;;;13.50;8.30;;;;;;5032202;28;20501;-72
2024/01/25 08:25:20;;;;;;;11.07;2.20;;;13.40;8.70;;;;;;5028681;28;20455;-71
2024/01/25 08:27:46;;;;;;;12.30;2.67;;;13.20;8.50;;;;;;5036024;28;21081;-71
2024/01/25 08:30:14;;;;;;;10.90;2.43;;;13.00;8.50;;;;;;5032781;28;20455;-71
2024/01/25 08:32:40;;;;;;;7.77;2.13;;;12.90;8.60;;;;;;5027815;28;20465;-71
2024/01/25 08:35:08;;;;;;;8.50;2.03;;;12.90;8.80;;;;;;5028071;28;20479;-72
2024/01/25 08:37:36;;;;;;;6.87;2.57;;;13.10;8.80;;;;;;5027795;28;20485;-72
2024/01/25 08:40:05;;;;;;;7.30;1.60;;;13.20;8.80;;;;;;5028045;28;20457;-72
2024/01/25 08:42:32;;;;;;;7.10;2.10;;;13.40;8.40;;;;;;5035262;28;20862;-72
2024/01/25 08:44:59;;;;;;;9.30;2.10;;;13.50;7.90;;;;;;5032674;28;20458;-72
2024/01/25 08:47:26;;;;;;;9.40;1.80;;;13.60;7.70;;;;;;5030203;28;20486;-72
2024/01/25 08:49:52;;;;;;;8.17;1.70;;;13.60;7.50;;;;;;5028719;28;20455;-72
2024/01/25 08:52:19;;;;;;;8.37;2.00;;;13.50;7.60;;;;;;5033630;28;20466;-72
2024/01/25 08:54:46;;;;;;;7.87;2.20;;;13.40;7.70;;;;;;5028638;28;20482;-72
2024/01/25 08:57:14;;;;;;;8.20;2.30;;;13.40;7.70;;;;;;5024749;28;20479;-71
2024/01/25 08:59:41;;;;;;;8.67;2.17;;;13.40;7.70;;;;;;5025237;28;20471;-72
2024/01/25 09:02:08;;;;;;;8.53;2.70;;;13.80;7.80;;;;;;5026268;28;20486;-72
2024/01/25 09:04:35;;;;;;;9.70;1.83;;;13.90;7.30;;;;;;5027709;28;20465;-72
2024/01/25 09:07:01;;;;;;;8.37;1.83;;;14.20;7.30;;;;;;5027581;28;20875;-71
2024/01/25 09:09:28;;;;;;;7.77;2.30;;;14.60;6.90;;;;;;5027888;28;20463;-71
2024/01/25 09:11:55;;;;;;;10.00;1.80;;;14.50;6.40;;;;;;5017901;28;20497;-69
2024/01/25 09:14:23;;;;;;;7.40;2.00;;;14.70;6.20;;;;;;5026855;28;20463;-69
2024/01/25 09:16:50;;;;;;;12.27;3.00;;;14.90;5.80;;;;;;5031860;28;20862;-68
2024/01/25 09:19:17;;;;;;;11.87;2.83;;;15.30;5.40;;;;;;5023852;28;20470;-68
2024/01/25 09:21:45;;;;;;;7.30;2.23;;;15.80;3.70;;;;;;5031683;28;20458;-71
2024/01/25 09:24:11;;;;;;;12.40;2.73;;;16.70;2.60;;;;;;5028232;28;20466;-70
2024/01/25 09:26:38;;;;;;;13.63;3.07;;;17.70;1.00;;;;;;5024847;28;20722;-71
2024/01/25 09:29:05;;;;;;;10.13;2.77;;;18.60;1.00;;;;;;5034930;28;20457;-70
2024/01/25 09:31:33;;;;;;;11.40;3.10;;;19.60;1.00;;;;;;5028995;28;20502;-72
2024/01/25 09:34:00;;;;;;;8.80;2.43;;;20.40;1.00;;;;;;5025233;28;20848;-70
2024/01/25 09:36:27;;;;;;;12.53;2.97;;;21.10;1.00;;;;;;5023120;28;20483;-68
2024/01/25 09:38:54;;;;;;;11.23;3.43;;;21.80;1.00;;;;;;5028976;28;21247;-69
2024/01/25 09:41:20;;;;;;;11.70;3.13;;;22.40;1.00;;;;;;5024500;28;20509;-68
2024/01/25 09:43:47;;;;;;;11.87;2.97;;;22.90;1.00;;;;;;5029598;28;20466;-67
2024/01/25 09:46:15;;;;;;;14.07;3.17;;;23.10;1.00;;;;;;5026849;28;20478;-67
2024/01/25 09:48:45;;;;;;;9.27;2.60;;;23.30;1.00;;;;;;5025092;28;20470;-67
2024/01/25 09:51:13;;;;;;;9.90;2.70;;;22.50;1.00;;;;;;5029320;28;20462;-67
2024/01/25 09:53:41;;;;;;;10.20;3.00;;;21.60;1.00;;;;;;5024422;28;20487;-67
2024/01/25 09:56:09;;;;;;;9.40;2.73;;;21.30;1.00;;;;;;5026737;28;21010;-68
2024/01/25 09:58:39;;;;;;;11.23;3.17;;;21.30;1.00;;;;;;5031377;28;21010;-67
2024/01/25 10:01:09;;;;;;;9.87;3.33;;;20.80;1.00;;;;;;5026025;28;21394;-67
2024/01/25 10:03:36;;;;;;;16.47;3.10;;;20.10;1.00;;;;;;5030002;28;20873;-67
2024/01/25 10:06:06;;;;;;;9.33;3.07;;;19.60;1.00;;;;;;5019829;28;20470;-69
2024/01/25 10:08:33;;;;;;;12.40;3.40;;;19.10;1.00;;;;;;5020216;28;20487;-69
2024/01/25 10:11:00;;;;;;;13.50;3.70;;;18.60;1.00;;;;;;5025013;28;20473;-69
2024/01/25 10:13:27;;;;;;;12.80;4.20;;;18.40;1.00;;;;;;5027297;28;20873;-72
2024/01/25 10:15:54;;;;;;;9.33;2.97;;;18.10;1.00;;;;;;5028334;28;20479;-70
2024/01/25 10:18:21;;;;;;;12.03;3.77;;;18.00;1.00;;;;;;5026002;28;20483;-68
2024/01/25 10:20:48;;;;;;;13.17;3.87;;;18.00;1.00;;;;;;5025730;28;20463;-68
2024/01/25 10:23:16;;;;;;;8.97;2.47;;;17.80;1.00;;;;;;5029275;28;20482;-72
2024/01/25 10:25:42;;;;;;;9.93;2.83;;;17.70;1.00;;;;;;5032530;28;21050;-71
2024/01/25 10:28:09;;;;;;;9.50;3.50;;;17.50;1.00;;;;;;5029739;28;20478;-68
2024/01/25 10:30:37;;;;;;;11.40;2.90;;;17.40;1.00;;;;;;5024051;28;20478;-69
2024/01/25 10:33:05;;;;;;;8.20;3.33;;;17.10;1.00;;;;;;5029162;28;21039;-70
2024/01/25 10:35:32;;;;;;;10.93;2.80;;;16.80;1.00;;;;;;5025434;28;20479;-70
2024/01/25 10:37:59;;;;;;;11.03;3.30;;;16.50;1.00;;;;;;5053511;23;21129;-66
2024/01/25 10:40:29;;;;;;;11.43;3.27;;;16.30;1.00;;;;;;5034680;28;20467;-72
2024/01/25 10:42:55;;;;;;;10.20;2.50;;;16.20;1.00;;;;;;5044136;28;20468;-71
2024/01/25 10:45:22;;;;;;;10.80;3.07;;;16.20;1.00;;;;;;5043020;28;20478;-71
2024/01/25 10:47:49;;;;;;;12.97;2.90;;;16.10;1.00;;;;;;5039469;28;20858;-69
2024/01/25 10:50:16;;;;;;;8.10;2.97;;;16.00;1.00;;;;;;5057886;28;20480;-65
2024/01/25 10:52:44;;;;;;;11.07;2.97;;;15.90;1.00;;;;;;5049474;28;20481;-65
2024/01/25 10:55:13;;;;;;;16.73;4.53;;;15.80;1.00;;;;;;5045794;28;20914;-66
2024/01/25 10:57:44;;;;;;;15.17;3.00;;;15.70;1.00;;;;;;5046293;28;20494;-66
2024/01/25 11:00:12;;;;;;;12.43;3.27;;;15.60;1.00;;;;;;5043696;28;20470;-66
2024/01/25 11:02:40;;;;;;;10.90;3.00;;;15.60;1.00;;;;;;5040204;28;20478;-70
2024/01/25 11:05:09;;;;;;;13.70;3.33;;;15.60;1.00;;;;;;5048004;28;20466;-68
2024/01/25 11:07:43;;;;;;;10.60;3.57;;;15.50;1.00;;;;;;5036871;28;20850;-68
2024/01/25 11:10:16;;;;;;;13.57;3.33;;;15.50;1.00;;;;;;5044710;28;21129;-66
2024/01/25 11:12:52;;;;;;;11.37;2.50;;;15.50;1.00;;;;;;5040882;28;20553;-68
2024/01/25 11:15:21;;;;;;;9.50;2.90;;;15.40;1.00;;;;;;5037982;28;20485;-67
2024/01/25 11:17:53;;;;;;;12.37;4.17;;;15.40;1.00;;;;;;5039834;28;20484;-68
2024/01/25 11:20:22;;;;;;;12.53;3.47;;;15.30;1.00;;;;;;5041194;28;20466;-68
2024/01/25 11:22:49;;;;;;;12.77;3.30;;;15.20;1.00;;;;;;5043090;28;20470;-69
2024/01/25 11:25:21;;;;;;;17.87;3.87;;;15.10;1.00;;;;;;5043530;28;20469;-67
2024/01/25 11:27:50;;;;;;;13.03;3.53;;;15.00;1.00;;;;;;5045046;28;20490;-66
2024/01/25 11:30:20;;;;;;;11.77;3.00;;;15.00;1.00;;;;;;5047836;28;20554;-66
2024/01/25 11:32:47;;;;;;;10.57;3.40;;;15.00;1.00;;;;;;5043289;28;20509;-67
2024/01/25 11:35:16;;;;;;;12.13;3.50;;;14.90;1.00;;;;;;5044914;28;20494;-67
2024/01/25 11:37:44;;;;;;;11.43;3.47;;;14.90;1.00;;;;;;5042378;28;20490;-66
2024/01/25 11:40:11;;;;;;;16.40;3.80;;;15.00;1.00;;;;;;5046767;28;21057;-66
2024/01/25 11:42:38;;;;;;;10.63;3.57;;;15.00;1.00;;;;;;5043365;28;20545;-67
2024/01/25 11:45:09;;;;;;;15.43;2.90;;;15.20;1.00;;;;;;5042090;28;20462;-67
2024/01/25 11:47:36;;;;;;;13.00;4.43;;;15.50;1.00;;;;;;5041571;28;20483;-67
2024/01/25 11:50:03;;;;;;;9.73;3.30;;;16.30;1.00;;;;;;5038210;28;20474;-69
2024/01/25 11:52:31;;;;;;;13.53;3.20;;;17.10;1.00;;;;;;5045253;28;20470;-68
2024/01/25 11:54:58;;;;;;;17.37;2.67;;;17.20;1.00;;;;;;5039464;28;20468;-67
2024/01/25 11:57:25;;;;;;;10.80;2.63;;;18.00;1.00;;;;;;5044225;28;20478;-67
2024/01/25 11:59:52;;;;;;;12.33;3.93;;;18.70;1.00;;;;;;5045189;28;20466;-66
2024/01/25 12:02:20;;;;;;;13.77;3.73;;;19.20;1.00;;;;;;5049028;28;20477;-66
2024/01/25 12:04:47;;;;;;;15.40;4.70;;;19.30;1.00;;;;;;5043768;28;20457;-66
2024/01/25 12:07:15;;;;;;;11.13;3.20;;;19.70;1.00;;;;;;5039374;28;21002;-67
2024/01/25 12:09:42;;;;;;;13.00;4.00;;;19.70;1.00;;;;;;5043663;28;20454;-68
2024/01/25 12:12:12;;;;;;;10.93;3.00;;;19.60;1.00;;;;;;5046637;28;20454;-67
2024/01/25 12:14:41;;;;;;;14.77;5.10;;;19.30;1.00;;;;;;5046567;28;20823;-68
2024/01/25 12:17:07;;;;;;;16.23;4.43;;;18.80;1.00;;;;;;5045397;28;20482;-68
2024/01/25 12:19:35;;;;;;;13.43;3.80;;;18.40;1.00;;;;;;5041874;28;20787;-68
2024/01/25 12:22:02;;;;;;;11.43;2.70;;;18.60;1.00;;;;;;5049619;28;20461;-68
2024/01/25 12:24:29;;;;;;;12.57;3.43;;;18.70;1.00;;;;;;5049042;28;20465;-67
2024/01/25 12:26:56;;;;;;;10.87;3.60;;;18.80;1.00;;;;;;5047106;28;20482;-68
2024/01/25 12:29:24;;;;;;;9.57;2.70;;;19.00;1.00;;;;;;5047943;28;20559;-68
2024/01/25 12:31:51;;;;;;;11.17;2.67;;;19.30;1.00;;;;;;5042685;28;20489;-68
2024/01/25 12:34:17;;;;;;;15.57;3.60;;;19.40;1.00;;;;;;5047531;28;20471;-68
2024/01/25 12:36:45;;;;;;;13.37;2.90;;;19.30;1.00;;;;;;5047157;28;20485;-68
2024/01/25 12:39:14;;;;;;;9.20;2.20;;;19.40;1.00;;;;;;5045090;28;20958;-68
2024/01/25 12:41:41;;;;;;;8.00;2.50;;;19.40;1.00;;;;;;5043468;28;20548;-67
2024/01/25 12:44:08;;;;;;;8.97;2.73;;;19.30;1.00;;;;;;5045901;28;20471;-67
2024/01/25 12:46:34;;;;;;;10.53;2.83;;;19.10;1.00;;;;;;5046371;28;20466;-67
2024/01/25 12:49:03;;;;;;;9.63;2.47;;;19.00;1.00;;;;;;5049641;28;20450;-68
2024/01/25 12:51:29;;;;;;;9.87;2.30;;;19.20;1.00;;;;;;5045292;28;20450;-67